sensor_id;sensor_type;location;lat;lon;timestamp;pressure;altitude;pressure_sealevel;temperature;humidity
23953;BME280;12163;49.316;6.092;2022-09-01T00:01:40;99601.34;;;18.91;67.89
23953;BME280;12163;49.316;6.092;2022-09-01T00:04:11;99593.81;;;18.88;68.42
23953;BME280;12163;49.316;6.092;2022-09-01T00:06:39;99599.63;;;18.87;67.99
23953;BME280;12163;49.316;6.092;2022-09-01T00:09:10;99605.31;;;18.82;68.62
23953;BME280;12163;49.316;6.092;2022-09-01T00:11:43;99603.13;;;18.75;68.72
23953;BME280;12163;49.316;6.092;2022-09-01T00:14:17;99603.78;;;18.73;68.21
23953;BME280;12163;49.316;6.092;2022-09-01T00:16:57;99598.19;;;18.69;68.41
23953;BME280;12163;49.316;6.092;2022-09-01T00:19:25;99605.16;;;18.67;69.21
23953;BME280;12163;49.316;6.092;2022-09-01T00:21:52;99613.34;;;18.67;68.62
23953;BME280;12163;49.316;6.092;2022-09-01T00:24:19;99604.69;;;18.65;68.73
23953;BME280;12163;49.316;6.092;2022-09-01T00:26:46;99610.03;;;18.61;68.75
23953;BME280;12163;49.316;6.092;2022-09-01T00:29:14;99613.53;;;18.62;68.66
23953;BME280;12163;49.316;6.092;2022-09-01T00:31:41;99608.06;;;18.62;68.86
23953;BME280;12163;49.316;6.092;2022-09-01T00:34:08;99618.09;;;18.58;68.88
23953;BME280;12163;49.316;6.092;2022-09-01T00:36:35;99610.09;;;18.53;69.26
23953;BME280;12163;49.316;6.092;2022-09-01T00:39:03;99619.28;;;18.48;68.56
23953;BME280;12163;49.316;6.092;2022-09-01T00:41:33;99618.38;;;18.44;69.01
23953;BME280;12163;49.316;6.092;2022-09-01T00:44:04;99623.38;;;18.42;69.03
23953;BME280;12163;49.316;6.092;2022-09-01T00:46:36;99617.31;;;18.37;69.39
23953;BME280;12163;49.316;6.092;2022-09-01T00:52:30;99623.44;;;18.34;69.43
23953;BME280;12163;49.316;6.092;2022-09-01T00:55:03;99625.72;;;18.32;69.34
23953;BME280;12163;49.316;6.092;2022-09-01T00:57:33;99625.25;;;18.30;69.35
23953;BME280;12163;49.316;6.092;2022-09-01T01:00:17;99623.47;;;18.25;69.45
23953;BME280;12163;49.316;6.092;2022-09-01T01:02:45;99615.94;;;18.22;69.15
23953;BME280;12163;49.316;6.092;2022-09-01T01:05:14;99618.53;;;18.19;69.73
23953;BME280;12163;49.316;6.092;2022-09-01T01:07:42;99621.47;;;18.14;69.99
23953;BME280;12163;49.316;6.092;2022-09-01T01:10:14;99624.88;;;18.11;70.32
23953;BME280;12163;49.316;6.092;2022-09-01T01:12:41;99633.41;;;18.09;70.63
23953;BME280;12163;49.316;6.092;2022-09-01T01:15:13;99621.53;;;18.05;70.41
23953;BME280;12163;49.316;6.092;2022-09-01T01:17:40;99625.75;;;18.03;70.09
23953;BME280;12163;49.316;6.092;2022-09-01T01:20:08;99623.69;;;18.00;70.54
23953;BME280;12163;49.316;6.092;2022-09-01T01:23:23;99627.72;;;17.94;70.27
23953;BME280;12163;49.316;6.092;2022-09-01T01:25:58;99623.38;;;17.93;70.93
23953;BME280;12163;49.316;6.092;2022-09-01T01:28:27;99626.47;;;17.91;70.19
23953;BME280;12163;49.316;6.092;2022-09-01T01:31:03;99619.25;;;17.87;70.98
23953;BME280;12163;49.316;6.092;2022-09-01T01:33:34;99618.31;;;17.83;71.17
23953;BME280;12163;49.316;6.092;2022-09-01T01:36:11;99622.50;;;17.80;71.31
23953;BME280;12163;49.316;6.092;2022-09-01T01:38:39;99628.31;;;17.79;71.23
23953;BME280;12163;49.316;6.092;2022-09-01T01:41:10;99623.50;;;17.76;71.16
23953;BME280;12163;49.316;6.092;2022-09-01T01:43:37;99619.50;;;17.73;70.98
23953;BME280;12163;49.316;6.092;2022-09-01T01:46:06;99622.09;;;17.70;71.40
23953;BME280;12163;49.316;6.092;2022-09-01T01:48:36;99619.69;;;17.68;71.29
23953;BME280;12163;49.316;6.092;2022-09-01T01:51:04;99619.22;;;17.66;71.29
23953;BME280;12163;49.316;6.092;2022-09-01T01:53:31;99622.28;;;17.65;70.54
23953;BME280;12163;49.316;6.092;2022-09-01T01:55:58;99631.91;;;17.62;70.75
23953;BME280;12163;49.316;6.092;2022-09-01T01:58:26;99619.75;;;17.60;70.90
23953;BME280;12163;49.316;6.092;2022-09-01T02:00:55;99620.53;;;17.60;70.55
23953;BME280;12163;49.316;6.092;2022-09-01T02:03:24;99616.53;;;17.58;70.79
23953;BME280;12163;49.316;6.092;2022-09-01T02:05:53;99627.47;;;17.58;70.72
23953;BME280;12163;49.316;6.092;2022-09-01T02:08:22;99617.22;;;17.55;71.19
23953;BME280;12163;49.316;6.092;2022-09-01T02:10:52;99620.56;;;17.52;70.97
23953;BME280;12163;49.316;6.092;2022-09-01T02:13:23;99624.41;;;17.51;70.57
23953;BME280;12163;49.316;6.092;2022-09-01T02:16:00;99617.38;;;17.50;70.52
23953;BME280;12163;49.316;6.092;2022-09-01T02:18:33;99619.16;;;17.46;70.34
23953;BME280;12163;49.316;6.092;2022-09-01T02:21:03;99631.19;;;17.45;70.98
23953;BME280;12163;49.316;6.092;2022-09-01T02:23:32;99625.28;;;17.43;71.11
23953;BME280;12163;49.316;6.092;2022-09-01T02:25:59;99625.28;;;17.43;71.29
23953;BME280;12163;49.316;6.092;2022-09-01T02:28:45;99617.09;;;17.43;70.89
23953;BME280;12163;49.316;6.092;2022-09-01T02:31:20;99616.63;;;17.41;70.28
23953;BME280;12163;49.316;6.092;2022-09-01T02:33:48;99619.53;;;17.36;70.63
23953;BME280;12163;49.316;6.092;2022-09-01T02:36:16;99623.38;;;17.35;69.97
23953;BME280;12163;49.316;6.092;2022-09-01T02:38:46;99612.94;;;17.37;70.71
23953;BME280;12163;49.316;6.092;2022-09-01T02:41:21;99614.09;;;17.36;70.63
23953;BME280;12163;49.316;6.092;2022-09-01T02:43:50;99613.91;;;17.32;70.16
23953;BME280;12163;49.316;6.092;2022-09-01T02:46:17;99615.34;;;17.30;69.98
23953;BME280;12163;49.316;6.092;2022-09-01T02:48:50;99618.06;;;17.30;70.14
23953;BME280;12163;49.316;6.092;2022-09-01T02:51:19;99612.28;;;17.31;70.68
23953;BME280;12163;49.316;6.092;2022-09-01T02:53:46;99610.38;;;17.32;70.63
23953;BME280;12163;49.316;6.092;2022-09-01T02:56:20;99610.38;;;17.32;70.40
23953;BME280;12163;49.316;6.092;2022-09-01T02:58:51;99605.56;;;17.29;70.17
23953;BME280;12163;49.316;6.092;2022-09-01T03:01:27;99610.41;;;17.23;69.76
23953;BME280;12163;49.316;6.092;2022-09-01T03:04:01;99611.06;;;17.20;70.00
23953;BME280;12163;49.316;6.092;2022-09-01T03:06:29;99612.97;;;17.20;70.25
23953;BME280;12163;49.316;6.092;2022-09-01T03:08:57;99607.53;;;17.20;70.71
23953;BME280;12163;49.316;6.092;2022-09-01T03:11:27;99608.66;;;17.19;70.14
23953;BME280;12163;49.316;6.092;2022-09-01T03:13:55;99604.81;;;17.20;69.84
23953;BME280;12163;49.316;6.092;2022-09-01T03:16:21;99612.16;;;17.19;70.48
23953;BME280;12163;49.316;6.092;2022-09-01T03:18:49;99605.94;;;17.19;69.66
23953;BME280;12163;49.316;6.092;2022-09-01T03:21:16;99609.78;;;17.18;70.58
23953;BME280;12163;49.316;6.092;2022-09-01T03:23:45;99606.72;;;17.19;70.11
23953;BME280;12163;49.316;6.092;2022-09-01T03:26:12;99608.66;;;17.19;69.25
23953;BME280;12163;49.316;6.092;2022-09-01T03:28:39;99609.13;;;17.21;69.59
23953;BME280;12163;49.316;6.092;2022-09-01T03:31:06;99603.97;;;17.19;69.46
23953;BME280;12163;49.316;6.092;2022-09-01T03:33:34;99606.41;;;17.21;69.44
23953;BME280;12163;49.316;6.092;2022-09-01T03:36:03;99607.53;;;17.20;69.17
23953;BME280;12163;49.316;6.092;2022-09-01T03:38:40;99608.66;;;17.19;69.47
23953;BME280;12163;49.316;6.092;2022-09-01T03:41:09;99607.72;;;17.15;69.57
23953;BME280;12163;49.316;6.092;2022-09-01T03:43:39;99617.50;;;17.16;69.42
23953;BME280;12163;49.316;6.092;2022-09-01T03:46:15;99610.25;;;17.20;69.29
23953;BME280;12163;49.316;6.092;2022-09-01T03:48:53;99603.19;;;17.19;69.18
23953;BME280;12163;49.316;6.092;2022-09-01T03:51:22;99606.41;;;17.21;68.63
23953;BME280;12163;49.316;6.092;2022-09-01T03:53:51;99600.94;;;17.21;69.25
23953;BME280;12163;49.316;6.092;2022-09-01T03:56:21;99595.50;;;17.21;68.64
23953;BME280;12163;49.316;6.092;2022-09-01T03:58:50;99604.16;;;17.23;68.74
23953;BME280;12163;49.316;6.092;2022-09-01T04:01:18;99602.34;;;17.27;68.29
23953;BME280;12163;49.316;6.092;2022-09-01T04:03:45;99603.63;;;17.29;68.27
23953;BME280;12163;49.316;6.092;2022-09-01T04:06:15;99607.97;;;17.30;67.57
23953;BME280;12163;49.316;6.092;2022-09-01T04:08:45;99608.28;;;17.29;67.81
23953;BME280;12163;49.316;6.092;2022-09-01T04:11:15;99610.53;;;17.27;68.15
23953;BME280;12163;49.316;6.092;2022-09-01T04:13:45;99600.28;;;17.24;67.59
23953;BME280;12163;49.316;6.092;2022-09-01T04:16:20;99609.44;;;17.19;67.69
23953;BME280;12163;49.316;6.092;2022-09-01T04:19:06;99603.84;;;17.16;67.65
23953;BME280;12163;49.316;6.092;2022-09-01T04:21:46;99599.84;;;17.13;67.91
23953;BME280;12163;49.316;6.092;2022-09-01T04:24:16;99602.91;;;17.12;67.97
23953;BME280;12163;49.316;6.092;2022-09-01T04:26:45;99598.09;;;17.09;67.96
23953;BME280;12163;49.316;6.092;2022-09-01T04:29:18;99594.25;;;17.10;67.71
23953;BME280;12163;49.316;6.092;2022-09-01T04:31:49;99599.84;;;17.13;67.24
23953;BME280;12163;49.316;6.092;2022-09-01T04:34:20;99597.94;;;17.14;67.55
23953;BME280;12163;49.316;6.092;2022-09-01T04:36:47;99604.50;;;17.13;67.13
23953;BME280;12163;49.316;6.092;2022-09-01T04:39:20;99599.72;;;17.10;66.87
23953;BME280;12163;49.316;6.092;2022-09-01T04:41:47;99601.47;;;17.06;67.56
23953;BME280;12163;49.316;6.092;2022-09-01T04:44:16;99604.84;;;17.03;68.05
23953;BME280;12163;49.316;6.092;2022-09-01T04:46:45;99610.19;;;16.99;67.96
23953;BME280;12163;49.316;6.092;2022-09-01T04:49:16;99605.34;;;16.96;67.55
23953;BME280;12163;49.316;6.092;2022-09-01T04:51:48;99605.00;;;17.06;68.04
23953;BME280;12163;49.316;6.092;2022-09-01T04:54:20;99601.88;;;17.62;67.35
23953;BME280;12163;49.316;6.092;2022-09-01T04:56:50;99605.50;;;18.24;66.42
23953;BME280;12163;49.316;6.092;2022-09-01T04:59:20;99601.53;;;18.74;64.90
23953;BME280;12163;49.316;6.092;2022-09-01T05:01:48;99606.00;;;19.23;63.68
23953;BME280;12163;49.316;6.092;2022-09-01T05:04:18;99601.44;;;19.63;61.61
23953;BME280;12163;49.316;6.092;2022-09-01T05:06:49;99601.44;;;19.87;60.59
23953;BME280;12163;49.316;6.092;2022-09-01T05:09:17;99597.09;;;19.98;59.86
23953;BME280;12163;49.316;6.092;2022-09-01T05:11:44;99593.63;;;20.13;59.22
23953;BME280;12163;49.316;6.092;2022-09-01T05:14:12;99605.03;;;20.27;58.66
23953;BME280;12163;49.316;6.092;2022-09-01T05:16:39;99598.00;;;20.42;57.68
23953;BME280;12163;49.316;6.092;2022-09-01T05:19:09;99599.28;;;20.44;56.82
23953;BME280;12163;49.316;6.092;2022-09-01T05:21:41;99596.16;;;20.46;56.74
23953;BME280;12163;49.316;6.092;2022-09-01T05:24:12;99594.31;;;20.49;56.88
23953;BME280;12163;49.316;6.092;2022-09-01T05:26:41;99596.59;;;20.48;56.08
23953;BME280;12163;49.316;6.092;2022-09-01T05:29:09;99595.28;;;20.30;56.48
23953;BME280;12163;49.316;6.092;2022-09-01T05:31:40;99596.34;;;20.25;56.59
23953;BME280;12163;49.316;6.092;2022-09-01T05:34:08;99602.31;;;20.15;55.78
23953;BME280;12163;49.316;6.092;2022-09-01T05:36:43;99604.16;;;19.75;57.35
23953;BME280;12163;49.316;6.092;2022-09-01T05:39:11;99603.47;;;19.90;57.80
23953;BME280;12163;49.316;6.092;2022-09-01T05:41:39;99604.50;;;20.10;57.36
23953;BME280;12163;49.316;6.092;2022-09-01T05:44:07;99610.50;;;20.27;56.81
23953;BME280;12163;49.316;6.092;2022-09-01T05:46:36;99607.72;;;20.39;56.50
23953;BME280;12163;49.316;6.092;2022-09-01T05:49:04;99604.44;;;20.61;56.29
23953;BME280;12163;49.316;6.092;2022-09-01T05:51:41;99607.84;;;20.70;55.91
23953;BME280;12163;49.316;6.092;2022-09-01T05:54:18;99607.56;;;20.87;55.19
23953;BME280;12163;49.316;6.092;2022-09-01T05:56:47;99606.31;;;21.00;54.89
23953;BME280;12163;49.316;6.092;2022-09-01T05:59:14;99612.69;;;21.04;54.07
23953;BME280;12163;49.316;6.092;2022-09-01T06:01:51;99616.53;;;21.15;54.23
23953;BME280;12163;49.316;6.092;2022-09-01T06:04:18;99607.69;;;21.21;53.86
23953;BME280;12163;49.316;6.092;2022-09-01T06:06:47;99615.72;;;21.14;53.39
23953;BME280;12163;49.316;6.092;2022-09-01T06:09:36;99612.47;;;21.09;54.04
23953;BME280;12163;49.316;6.092;2022-09-01T06:12:04;99617.31;;;21.00;53.66
23953;BME280;12163;49.316;6.092;2022-09-01T06:14:31;99619.72;;;21.01;54.00
23953;BME280;12163;49.316;6.092;2022-09-01T06:16:57;99613.22;;;20.94;53.94
23953;BME280;12163;49.316;6.092;2022-09-01T06:19:24;99613.84;;;21.03;53.98
23953;BME280;12163;49.316;6.092;2022-09-01T06:21:50;99612.19;;;21.14;53.31
23953;BME280;12163;49.316;6.092;2022-09-01T06:24:18;99616.84;;;20.98;53.04
23953;BME280;12163;49.316;6.092;2022-09-01T06:26:45;99614.25;;;20.62;54.16
23953;BME280;12163;49.316;6.092;2022-09-01T06:29:12;99619.81;;;20.50;55.14
23953;BME280;12163;49.316;6.092;2022-09-01T06:31:41;99620.84;;;20.73;55.18
23953;BME280;12163;49.316;6.092;2022-09-01T06:34:10;99617.13;;;20.93;54.36
23953;BME280;12163;49.316;6.092;2022-09-01T06:36:39;99609.44;;;21.14;53.82
23953;BME280;12163;49.316;6.092;2022-09-01T06:39:07;99611.06;;;21.30;53.04
23953;BME280;12163;49.316;6.092;2022-09-01T06:41:34;99610.16;;;21.42;52.28
23953;BME280;12163;49.316;6.092;2022-09-01T06:44:03;99611.38;;;21.13;53.00
23953;BME280;12163;49.316;6.092;2022-09-01T06:46:30;99606.50;;;21.07;52.95
23953;BME280;12163;49.316;6.092;2022-09-01T06:48:57;99608.31;;;21.15;53.40
23953;BME280;12163;49.316;6.092;2022-09-01T06:51:25;99606.28;;;21.27;52.49
23953;BME280;12163;49.316;6.092;2022-09-01T06:53:57;99599.53;;;21.09;53.34
23953;BME280;12163;49.316;6.092;2022-09-01T06:56:26;99604.84;;;21.18;53.08
23953;BME280;12163;49.316;6.092;2022-09-01T06:58:57;99606.78;;;21.17;52.91
23953;BME280;12163;49.316;6.092;2022-09-01T07:01:25;99609.03;;;21.27;53.47
23953;BME280;12163;49.316;6.092;2022-09-01T07:03:54;99610.78;;;21.20;52.17
23953;BME280;12163;49.316;6.092;2022-09-01T07:06:24;99615.00;;;21.02;53.37
23953;BME280;12163;49.316;6.092;2022-09-01T07:09:12;99609.91;;;21.16;53.60
23953;BME280;12163;49.316;6.092;2022-09-01T07:11:59;99611.31;;;21.41;53.09
23953;BME280;12163;49.316;6.092;2022-09-01T07:14:48;99616.03;;;21.71;52.66
23953;BME280;12163;49.316;6.092;2022-09-01T07:17:35;99609.50;;;21.95;51.47
23953;BME280;12163;49.316;6.092;2022-09-01T07:20:08;99611.31;;;22.06;50.21
23953;BME280;12163;49.316;6.092;2022-09-01T07:22:53;99622.53;;;21.98;50.81
23953;BME280;12163;49.316;6.092;2022-09-01T07:25:40;99618.34;;;21.69;50.91
23953;BME280;12163;49.316;6.092;2022-09-01T07:28:27;99623.84;;;21.69;51.71
23953;BME280;12163;49.316;6.092;2022-09-01T07:31:05;99627.53;;;21.77;50.53
23953;BME280;12163;49.316;6.092;2022-09-01T07:33:55;99622.13;;;21.65;51.47
23953;BME280;12163;49.316;6.092;2022-09-01T07:36:44;99621.59;;;21.44;51.68
23953;BME280;12163;49.316;6.092;2022-09-01T07:39:31;99620.53;;;21.33;51.27
23953;BME280;12163;49.316;6.092;2022-09-01T07:42:16;99622.47;;;21.17;52.15
23953;BME280;12163;49.316;6.092;2022-09-01T07:45:07;99622.56;;;21.20;52.65
23953;BME280;12163;49.316;6.092;2022-09-01T07:47:52;99617.41;;;21.19;52.66
23953;BME280;12163;49.316;6.092;2022-09-01T07:50:20;99625.50;;;21.43;52.10
23953;BME280;12163;49.316;6.092;2022-09-01T07:53:05;99615.16;;;21.67;51.92
23953;BME280;12163;49.316;6.092;2022-09-01T07:55:34;99622.66;;;21.86;51.43
23953;BME280;12163;49.316;6.092;2022-09-01T07:58:00;99619.63;;;21.91;51.42
23953;BME280;12163;49.316;6.092;2022-09-01T08:00:27;99621.97;;;22.08;51.00
23953;BME280;12163;49.316;6.092;2022-09-01T08:02:57;99618.44;;;22.26;50.61
23953;BME280;12163;49.316;6.092;2022-09-01T08:05:24;99612.31;;;22.32;50.13
23953;BME280;12163;49.316;6.092;2022-09-01T08:07:52;99610.81;;;22.35;50.47
23953;BME280;12163;49.316;6.092;2022-09-01T08:10:20;99621.56;;;22.25;50.59
23953;BME280;12163;49.316;6.092;2022-09-01T08:12:47;99622.44;;;22.28;50.26
23953;BME280;12163;49.316;6.092;2022-09-01T08:15:22;99624.00;;;22.11;49.78
23953;BME280;12163;49.316;6.092;2022-09-01T08:18:07;99613.09;;;22.14;50.62
23953;BME280;12163;49.316;6.092;2022-09-01T08:20:37;99609.38;;;22.41;50.12
23953;BME280;12163;49.316;6.092;2022-09-01T08:23:05;99612.56;;;22.43;49.97
23953;BME280;12163;49.316;6.092;2022-09-01T08:25:34;99614.06;;;22.40;50.34
23953;BME280;12163;49.316;6.092;2022-09-01T08:28:02;99612.41;;;22.36;49.83
23953;BME280;12163;49.316;6.092;2022-09-01T08:30:30;99615.31;;;22.09;50.63
23953;BME280;12163;49.316;6.092;2022-09-01T08:33:01;99619.94;;;22.05;51.14
23953;BME280;12163;49.316;6.092;2022-09-01T08:35:46;99613.00;;;22.11;51.29
23953;BME280;12163;49.316;6.092;2022-09-01T08:38:13;99609.94;;;22.31;50.87
23953;BME280;12163;49.316;6.092;2022-09-01T08:40:41;99616.25;;;22.50;50.37
23953;BME280;12163;49.316;6.092;2022-09-01T08:43:30;99611.94;;;22.49;50.45
23953;BME280;12163;49.316;6.092;2022-09-01T08:48:43;99614.25;;;22.66;50.04
23953;BME280;12163;49.316;6.092;2022-09-01T08:54:44;99599.66;;;22.85;50.07
23953;BME280;12163;49.316;6.092;2022-09-01T08:57:16;99602.22;;;22.97;49.88
23953;BME280;12163;49.316;6.092;2022-09-01T08:59:43;99605.50;;;23.02;49.24
23953;BME280;12163;49.316;6.092;2022-09-01T09:05:04;99598.25;;;23.13;49.57
23953;BME280;12163;49.316;6.092;2022-09-01T09:10:31;99599.13;;;22.98;49.50
23953;BME280;12163;49.316;6.092;2022-09-01T09:15:48;99585.72;;;22.97;49.89
23953;BME280;12163;49.316;6.092;2022-09-01T09:21:31;99582.63;;;23.43;49.04
23953;BME280;12163;49.316;6.092;2022-09-01T09:24:15;99587.09;;;23.51;49.01
23953;BME280;12163;49.316;6.092;2022-09-01T09:26:53;99582.16;;;23.64;48.61
23953;BME280;12163;49.316;6.092;2022-09-01T09:29:20;99586.84;;;23.82;48.19
23953;BME280;12163;49.316;6.092;2022-09-01T09:32:01;99575.28;;;23.99;47.54
23953;BME280;12163;49.316;6.092;2022-09-01T09:34:35;99573.25;;;23.96;47.70
23953;BME280;12163;49.316;6.092;2022-09-01T09:37:22;99574.28;;;24.14;47.68
23953;BME280;12163;49.316;6.092;2022-09-01T09:40:21;99564.19;;;24.25;47.17
23953;BME280;12163;49.316;6.092;2022-09-01T09:47:47;99567.44;;;24.05;46.74
23953;BME280;12163;49.316;6.092;2022-09-01T09:53:09;99556.06;;;24.06;47.50
23953;BME280;12163;49.316;6.092;2022-09-01T09:58:34;99555.25;;;24.35;47.03
23953;BME280;12163;49.316;6.092;2022-09-01T10:03:55;99546.22;;;24.38;46.84
23953;BME280;12163;49.316;6.092;2022-09-01T10:09:00;99539.88;;;24.34;47.06
23953;BME280;12163;49.316;6.092;2022-09-01T10:11:42;99536.78;;;24.39;47.12
23953;BME280;12163;49.316;6.092;2022-09-01T10:14:16;99532.81;;;24.66;46.70
23953;BME280;12163;49.316;6.092;2022-09-01T10:17:11;99541.34;;;24.94;45.96
23953;BME280;12163;49.316;6.092;2022-09-01T10:20:08;99534.97;;;24.86;45.24
23953;BME280;12163;49.316;6.092;2022-09-01T10:22:38;99542.13;;;24.91;45.22
23953;BME280;12163;49.316;6.092;2022-09-01T10:25:08;99532.72;;;24.99;44.76
23953;BME280;12163;49.316;6.092;2022-09-01T10:27:41;99525.66;;;25.05;44.88
23953;BME280;12163;49.316;6.092;2022-09-01T10:30:16;99523.66;;;25.02;44.74
23953;BME280;12163;49.316;6.092;2022-09-01T10:32:49;99519.38;;;25.04;45.00
23953;BME280;12163;49.316;6.092;2022-09-01T10:35:36;99521.00;;;25.12;45.18
23953;BME280;12163;49.316;6.092;2022-09-01T10:38:23;99521.53;;;25.25;44.48
23953;BME280;12163;49.316;6.092;2022-09-01T10:40:53;99518.00;;;25.28;44.32
23953;BME280;12163;49.316;6.092;2022-09-01T10:43:41;99524.28;;;25.25;44.21
23953;BME280;12163;49.316;6.092;2022-09-01T10:48:53;99522.31;;;25.22;44.29
23953;BME280;12163;49.316;6.092;2022-09-01T10:54:01;99515.34;;;24.95;44.39
23953;BME280;12163;49.316;6.092;2022-09-01T11:02:16;99509.97;;;25.12;43.65
23953;BME280;12163;49.316;6.092;2022-09-01T11:11:11;99504.25;;;25.35;42.91
23953;BME280;12163;49.316;6.092;2022-09-01T11:16:45;99508.97;;;25.31;43.29
23953;BME280;12163;49.316;6.092;2022-09-01T11:19:25;99496.91;;;25.53;41.79
23953;BME280;12163;49.316;6.092;2022-09-01T11:22:12;99494.59;;;25.69;41.08
23953;BME280;12163;49.316;6.092;2022-09-01T11:27:10;99486.97;;;26.09;40.94
23953;BME280;12163;49.316;6.092;2022-09-01T11:32:24;99487.13;;;26.47;39.27
23953;BME280;12163;49.316;6.092;2022-09-01T11:34:54;99490.19;;;26.35;38.59
23953;BME280;12163;49.316;6.092;2022-09-01T11:37:23;99489.38;;;26.28;39.21
23953;BME280;12163;49.316;6.092;2022-09-01T11:40:02;99484.28;;;26.40;39.12
23953;BME280;12163;49.316;6.092;2022-09-01T11:42:39;99475.97;;;26.40;38.79
23953;BME280;12163;49.316;6.092;2022-09-01T11:45:22;99472.09;;;26.55;38.56
23953;BME280;12163;49.316;6.092;2022-09-01T11:47:59;99468.97;;;26.92;38.47
23953;BME280;12163;49.316;6.092;2022-09-01T11:50:33;99462.66;;;27.33;37.58
23953;BME280;12163;49.316;6.092;2022-09-01T11:53:05;99465.78;;;27.60;36.77
23953;BME280;12163;49.316;6.092;2022-09-01T11:55:36;99473.28;;;27.80;35.27
23953;BME280;12163;49.316;6.092;2022-09-01T11:58:09;99468.50;;;27.84;34.95
23953;BME280;12163;49.316;6.092;2022-09-01T12:00:43;99458.63;;;27.69;35.00
23953;BME280;12163;49.316;6.092;2022-09-01T12:03:21;99468.97;;;27.41;35.43
23953;BME280;12163;49.316;6.092;2022-09-01T12:05:54;99468.22;;;27.12;36.61
23953;BME280;12163;49.316;6.092;2022-09-01T12:08:28;99455.53;;;27.08;36.37
23953;BME280;12163;49.316;6.092;2022-09-01T12:13:32;99446.03;;;27.37;35.43
23953;BME280;12163;49.316;6.092;2022-09-01T12:16:04;99456.28;;;27.50;35.14
23953;BME280;12163;49.316;6.092;2022-09-01T12:18:48;99453.94;;;27.45;34.64
23953;BME280;12163;49.316;6.092;2022-09-01T12:24:09;99454.72;;;27.53;35.12
23953;BME280;12163;49.316;6.092;2022-09-01T12:26:37;99454.28;;;27.75;34.43
23953;BME280;12163;49.316;6.092;2022-09-01T12:29:05;99439.63;;;27.78;34.33
23953;BME280;12163;49.316;6.092;2022-09-01T12:31:32;99434.78;;;27.96;33.89
23953;BME280;12163;49.316;6.092;2022-09-01T12:33:59;99440.22;;;28.17;33.83
23953;BME280;12163;49.316;6.092;2022-09-01T12:36:34;99439.00;;;28.32;33.22
23953;BME280;12163;49.316;6.092;2022-09-01T12:41:45;99430.47;;;28.60;31.88
23953;BME280;12163;49.316;6.092;2022-09-01T12:44:56;99427.84;;;28.97;30.70
23953;BME280;12163;49.316;6.092;2022-09-01T12:52:47;99429.22;;;29.19;30.13
23953;BME280;12163;49.316;6.092;2022-09-01T12:55:21;99431.63;;;29.20;30.88
23953;BME280;12163;49.316;6.092;2022-09-01T12:58:08;99437.16;;;29.20;31.62
23953;BME280;12163;49.316;6.092;2022-09-01T13:00:53;99422.41;;;29.27;31.46
23953;BME280;12163;49.316;6.092;2022-09-01T13:03:21;99422.34;;;29.34;31.34
23953;BME280;12163;49.316;6.092;2022-09-01T13:05:53;99421.88;;;29.39;31.13
23953;BME280;12163;49.316;6.092;2022-09-01T13:08:22;99415.50;;;29.42;30.92
23953;BME280;12163;49.316;6.092;2022-09-01T13:10:57;99409.94;;;29.42;30.95
23953;BME280;12163;49.316;6.092;2022-09-01T13:13:25;99411.09;;;29.48;30.30
23953;BME280;12163;49.316;6.092;2022-09-01T13:15:54;99412.13;;;29.61;29.92
23953;BME280;12163;49.316;6.092;2022-09-01T13:18:23;99396.41;;;29.80;29.42
23953;BME280;12163;49.316;6.092;2022-09-01T13:20:51;99399.66;;;30.09;28.62
23953;BME280;12163;49.316;6.092;2022-09-01T13:23:19;99400.69;;;30.18;27.74
23953;BME280;12163;49.316;6.092;2022-09-01T13:25:46;99395.69;;;30.06;28.29
23953;BME280;12163;49.316;6.092;2022-09-01T13:28:14;99396.44;;;30.10;28.17
23953;BME280;12163;49.316;6.092;2022-09-01T13:30:49;99397.09;;;30.21;28.21
23953;BME280;12163;49.316;6.092;2022-09-01T13:33:39;99383.06;;;30.28;28.45
23953;BME280;12163;49.316;6.092;2022-09-01T13:36:26;99388.41;;;30.42;28.11
23953;BME280;12163;49.316;6.092;2022-09-01T13:39:12;99386.03;;;30.41;27.86
23953;BME280;12163;49.316;6.092;2022-09-01T13:41:38;99386.59;;;30.29;28.12
23953;BME280;12163;49.316;6.092;2022-09-01T13:44:05;99384.44;;;30.13;27.92
23953;BME280;12163;49.316;6.092;2022-09-01T13:46:35;99383.34;;;30.07;28.07
23953;BME280;12163;49.316;6.092;2022-09-01T13:49:22;99377.66;;;30.44;28.25
23953;BME280;12163;49.316;6.092;2022-09-01T13:52:09;99377.09;;;31.02;27.43
23953;BME280;12163;49.316;6.092;2022-09-01T13:54:36;99375.09;;;31.45;25.99
23953;BME280;12163;49.316;6.092;2022-09-01T13:57:03;99373.63;;;31.79;25.57
23953;BME280;12163;49.316;6.092;2022-09-01T13:59:29;99373.88;;;32.24;25.38
23953;BME280;12163;49.316;6.092;2022-09-01T14:01:58;99370.00;;;32.53;24.82
23953;BME280;12163;49.316;6.092;2022-09-01T14:04:26;99365.03;;;32.77;24.73
23953;BME280;12163;49.316;6.092;2022-09-01T14:06:53;99364.63;;;32.78;24.80
23953;BME280;12163;49.316;6.092;2022-09-01T14:09:20;99362.38;;;32.22;25.21
23953;BME280;12163;49.316;6.092;2022-09-01T14:11:47;99370.34;;;31.46;25.83
23953;BME280;12163;49.316;6.092;2022-09-01T14:14:14;99359.66;;;30.75;26.76
23953;BME280;12163;49.316;6.092;2022-09-01T14:16:40;99372.63;;;30.32;27.64
23953;BME280;12163;49.316;6.092;2022-09-01T14:19:07;99359.13;;;29.74;28.74
23953;BME280;12163;49.316;6.092;2022-09-01T14:21:36;99358.16;;;29.21;30.00
23953;BME280;12163;49.316;6.092;2022-09-01T14:24:04;99370.69;;;28.96;29.94
23953;BME280;12163;49.316;6.092;2022-09-01T14:26:36;99371.69;;;28.68;30.02
23953;BME280;12163;49.316;6.092;2022-09-01T14:29:02;99373.75;;;28.61;30.48
23953;BME280;12163;49.316;6.092;2022-09-01T14:31:29;99372.44;;;28.72;30.27
23953;BME280;12163;49.316;6.092;2022-09-01T14:33:57;99364.34;;;29.36;29.97
23953;BME280;12163;49.316;6.092;2022-09-01T14:36:25;99358.09;;;29.91;29.31
23953;BME280;12163;49.316;6.092;2022-09-01T14:38:52;99361.22;;;30.76;28.08
23953;BME280;12163;49.316;6.092;2022-09-01T14:41:20;99351.38;;;31.37;26.92
23953;BME280;12163;49.316;6.092;2022-09-01T14:43:53;99346.38;;;31.87;26.51